This is the latest recevied weather packets stored in our database for station/object N0NAI-13. If no packets are shown the sender has not sent any weather packets the latest 10 day(s).
| Time | Temp. | Humidity | Pressure | Rain* | Wind** | Luminosity | Snow |
|---|---|---|---|---|---|---|---|
| 1777697122 | 0° C | 78% | 1021.4 hPa | 0 mm | - | - | - |
| 1777696525 | 0.56° C | 76% | 1021.4 hPa | 0 mm | - | - | - |
| 1777695928 | 0.56° C | 76% | 1021.5 hPa | 0 mm | - | - | - |
| 1777695331 | 1.11° C | 74% | 1021.5 hPa | 0 mm | - | - | - |
| 1777694718 | 1.11° C | 73% | 1021.5 hPa | 0 mm | - | - | - |
| 1777694119 | 1.67° C | 72% | 1021.5 hPa | 0 mm | - | - | - |
| 1777693521 | 2.22° C | 71% | 1021.5 hPa | 0 mm | - | - | - |
| 1777692924 | 2.78° C | 71% | 1021.5 hPa | 0 mm | - | - | - |
| 1777692321 | 2.78° C | 67% | 1021.4 hPa | 0 mm | - | - | - |
| 1777691718 | 3.33° C | 65% | 1021.4 hPa | 0 mm | - | - | - |
| 1777691133 | 3.89° C | 65% | 1021.4 hPa | 0 mm | - | - | - |
| 1777690518 | 3.89° C | 63% | 1021.2 hPa | 0 mm | - | - | - |
| 1777689921 | 4.44° C | 60% | 1021.2 hPa | 0 mm | - | - | - |
| 1777689324 | 4.44° C | 61% | 1021.2 hPa | 0 mm | - | - | - |
| 1777688727 | 5° C | 58% | 1021.2 hPa | 0 mm | - | - | - |
| 1777688130 | 5.56° C | 55% | 1021.2 hPa | 0 mm | - | - | - |
| 1777687533 | 5.56° C | 54% | 1021 hPa | 0 mm | - | - | - |
| 1777674324 | 16.11° C | 31% | 1019.9 hPa | 0 mm | - | - | - |
| 1777673727 | 15.56° C | 31% | 1019.8 hPa | 0 mm | - | - | - |
| 1777673125 | 15° C | 31% | 1019.9 hPa | 0 mm | - | - | - |
| 1777671930 | 15.56° C | 31% | 1019.8 hPa | 0 mm | - | - | - |
| 1777671333 | 14.44° C | 31% | 1019.8 hPa | 0 mm | - | - | - |
| 1777670120 | 14.44° C | 32% | 1019.8 hPa | 0 mm | - | - | - |
| 1777669523 | 13.89° C | 31% | 1019.7 hPa | 0 mm | - | - | - |
| 1777668920 | 14.44° C | 32% | 1019.8 hPa | 0 mm | - | - | - |
* Rain latest hour (hover to see other rain measurements)
** Current wind speed in m/s (hover to see current wind gust speed)